Time;durP1;ratioP1;P1;durP2;ratioP2;P2;SDS_P1;SDS_P2;PMS_P1;PMS_P2;Temp;Humidity;BMP_temperature;BMP_pressure;BME280_temperature;BME280_humidity;BME280_pressure;Samples;Min_cycle;Max_cycle;Signal;HPM_P1;HPM_P2
2021/01/26 00:00:17;;;;;;;9.17;5.90;;;-0.50;99.90;;;;;;5072994;28;20492;-83
2021/01/26 00:02:44;;;;;;;7.10;4.33;;;-0.60;99.90;;;;;;5073574;28;20507;-83
2021/01/26 00:05:11;;;;;;;5.67;5.00;;;-0.60;99.90;;;;;;5073345;28;20457;-83
2021/01/26 00:07:39;;;;;;;6.27;4.60;;;-0.60;99.90;;;;;;5073338;28;20456;-83
2021/01/26 00:10:06;;;;;;;5.63;4.90;;;-0.60;99.90;;;;;;5073396;28;20465;-83
2021/01/26 00:12:33;;;;;;;7.60;5.43;;;-0.60;99.90;;;;;;5073049;28;20439;-83
2021/01/26 00:14:59;;;;;;;7.37;4.97;;;-0.60;99.90;;;;;;5073214;28;20427;-83
2021/01/26 00:17:25;;;;;;;7.37;4.60;;;-0.60;99.90;;;;;;5072854;28;20420;-83
2021/01/26 00:19:52;;;;;;;7.33;5.07;;;-0.60;99.90;;;;;;5073182;28;20447;-83
2021/01/26 00:22:18;;;;;;;8.30;4.70;;;-0.60;99.90;;;;;;5073616;28;20426;-83
2021/01/26 00:24:45;;;;;;;6.27;4.63;;;-0.60;99.90;;;;;;5073210;28;20445;-83
2021/01/26 00:27:11;;;;;;;8.43;5.77;;;-0.60;99.90;;;;;;5072871;28;20456;-83
2021/01/26 00:29:38;;;;;;;6.20;4.60;;;-0.70;99.90;;;;;;5073019;28;20471;-83
2021/01/26 00:32:04;;;;;;;8.40;5.17;;;-0.70;99.90;;;;;;5072740;28;20928;-83
2021/01/26 00:34:31;;;;;;;6.83;4.90;;;-0.70;99.90;;;;;;5073091;28;20424;-83
2021/01/26 00:36:57;;;;;;;9.50;5.77;;;-0.80;99.90;;;;;;5072690;28;20423;-82
2021/01/26 00:39:23;;;;;;;9.20;5.77;;;-0.80;99.90;;;;;;5072962;28;20528;-83
2021/01/26 00:41:51;;;;;;;8.60;5.20;;;-0.80;99.90;;;;;;5072958;28;20480;-83
2021/01/26 00:44:17;;;;;;;8.93;5.97;;;-0.80;99.90;;;;;;5072885;28;20429;-83
2021/01/26 00:46:43;;;;;;;7.63;5.40;;;-0.80;99.90;;;;;;5073021;28;20447;-82
2021/01/26 00:49:09;;;;;;;7.00;5.20;;;-0.80;99.90;;;;;;5072786;28;20447;-82
2021/01/26 00:51:35;;;;;;;5.93;4.70;;;-0.90;99.90;;;;;;5072837;28;20449;-82
2021/01/26 00:54:02;;;;;;;7.20;4.67;;;-0.90;99.90;;;;;;5072876;28;20526;-82
2021/01/26 00:56:30;;;;;;;6.80;5.23;;;-0.90;99.90;;;;;;5072535;28;20741;-82
2021/01/26 00:58:57;;;;;;;9.30;4.93;;;-0.90;99.90;;;;;;5072752;28;20514;-82
2021/01/26 01:01:24;;;;;;;6.33;4.27;;;-0.90;99.90;;;;;;5072463;28;20470;-82
2021/01/26 01:03:50;;;;;;;7.67;5.50;;;-0.90;99.90;;;;;;5072518;28;20802;-82
2021/01/26 01:06:16;;;;;;;8.50;5.40;;;-0.90;99.90;;;;;;5072565;28;20412;-82
2021/01/26 01:08:43;;;;;;;8.23;5.57;;;-0.90;99.90;;;;;;5072356;28;20472;-83
2021/01/26 01:11:09;;;;;;;9.13;5.37;;;-0.90;99.90;;;;;;5074714;28;20460;-83
2021/01/26 01:13:35;;;;;;;8.70;5.50;;;-0.90;99.90;;;;;;5076449;28;20431;-83
2021/01/26 01:16:03;;;;;;;9.00;6.00;;;-0.90;99.90;;;;;;5076381;28;20435;-83
2021/01/26 01:18:29;;;;;;;8.07;4.43;;;-0.90;99.90;;;;;;5076334;28;20419;-83
2021/01/26 01:20:55;;;;;;;8.80;5.83;;;-1.00;99.90;;;;;;5076236;28;20458;-82
2021/01/26 01:23:22;;;;;;;7.57;4.90;;;-1.00;99.90;;;;;;5076683;28;20435;-83
2021/01/26 01:25:48;;;;;;;8.07;5.30;;;-0.90;99.90;;;;;;5076017;28;20440;-83
2021/01/26 01:28:14;;;;;;;7.57;5.23;;;-0.90;99.90;;;;;;5075653;28;20495;-82
2021/01/26 01:30:40;;;;;;;5.83;4.17;;;-0.80;99.90;;;;;;5075912;28;20422;-83
2021/01/26 01:33:07;;;;;;;8.60;5.53;;;-0.70;99.90;;;;;;5076029;28;20449;-83
2021/01/26 01:35:34;;;;;;;7.70;4.80;;;-0.70;99.90;;;;;;5076089;28;20411;-83
2021/01/26 01:38:00;;;;;;;7.40;5.20;;;-0.70;99.90;;;;;;5075584;28;20928;-83
2021/01/26 01:40:29;;;;;;;7.07;4.90;;;-0.70;99.90;;;;;;5076572;28;20827;-83
2021/01/26 01:42:55;;;;;;;6.60;5.00;;;-0.60;99.90;;;;;;5076085;28;20482;-83
2021/01/26 01:45:23;;;;;;;7.83;5.30;;;-0.60;99.90;;;;;;5075851;28;20942;-83
2021/01/26 01:47:53;;;;;;;10.50;5.90;;;-0.60;99.90;;;;;;5075743;28;20427;-83
2021/01/26 01:50:26;;;;;;;6.83;5.13;;;-0.60;99.90;;;;;;5075728;28;20447;-83
2021/01/26 01:52:58;;;;;;;9.33;5.03;;;-0.60;99.90;;;;;;5075790;28;20408;-83
2021/01/26 01:55:29;;;;;;;7.23;4.53;;;-0.60;99.90;;;;;;5076206;28;20420;-83
2021/01/26 01:58:02;;;;;;;8.00;4.60;;;-0.70;99.90;;;;;;5076010;28;20408;-83
2021/01/26 02:00:29;;;;;;;9.87;5.33;;;-0.70;99.90;;;;;;5075538;28;20474;-83
2021/01/26 02:02:59;;;;;;;7.00;4.80;;;-0.70;99.90;;;;;;5075613;28;20423;-83
2021/01/26 02:05:26;;;;;;;9.43;4.80;;;-0.60;99.90;;;;;;5075468;28;20925;-83
2021/01/26 02:07:56;;;;;;;8.00;4.90;;;-0.60;99.90;;;;;;5075459;28;20427;-83
2021/01/26 02:10:22;;;;;;;9.23;5.33;;;-0.70;99.90;;;;;;5075182;28;20446;-83
2021/01/26 02:12:49;;;;;;;6.40;4.03;;;-0.60;99.90;;;;;;5075002;28;20778;-83
2021/01/26 02:15:16;;;;;;;10.20;5.27;;;-0.60;99.90;;;;;;5075292;28;20432;-83
2021/01/26 02:18:09;;;;;;;8.63;5.50;;;-0.60;99.90;;;;;;5074830;28;20946;-83
2021/01/26 02:21:15;;;;;;;8.23;5.03;;;-0.60;99.90;;;;;;5075193;28;20459;-83
2021/01/26 02:24:13;;;;;;;8.53;5.63;;;-0.60;99.90;;;;;;5075237;28;20404;-83
2021/01/26 02:27:17;;;;;;;11.40;5.27;;;-0.60;99.90;;;;;;5074870;28;20408;-82
2021/01/26 02:30:14;;;;;;;8.00;4.67;;;-0.60;99.90;;;;;;5074768;28;20475;-83
2021/01/26 02:32:56;;;;;;;7.20;4.67;;;-0.60;99.90;;;;;;5074930;28;20425;-82
2021/01/26 02:35:49;;;;;;;8.43;5.10;;;-0.60;99.90;;;;;;5074996;28;20400;-82
2021/01/26 02:38:51;;;;;;;6.20;4.50;;;-0.60;99.90;;;;;;5074982;28;20449;-82
2021/01/26 02:41:28;;;;;;;10.43;5.90;;;-0.50;99.90;;;;;;5074723;28;20458;-82
2021/01/26 02:44:02;;;;;;;8.87;4.83;;;-0.50;99.90;;;;;;5074798;28;20404;-82
2021/01/26 02:46:39;;;;;;;10.60;5.50;;;-0.50;99.90;;;;;;5074472;28;20407;-82
2021/01/26 02:49:15;;;;;;;7.07;3.67;;;-0.50;99.90;;;;;;5074531;28;20936;-82
2021/01/26 02:51:49;;;;;;;9.50;5.27;;;-0.40;99.90;;;;;;5075324;28;20399;-82
2021/01/26 02:54:23;;;;;;;9.00;4.27;;;-0.50;99.90;;;;;;5074493;28;20417;-82
2021/01/26 02:56:57;;;;;;;8.70;5.93;;;-0.40;99.90;;;;;;5074570;28;20404;-82
2021/01/26 02:59:31;;;;;;;10.33;5.33;;;-0.40;99.90;;;;;;5074536;28;20448;-82
2021/01/26 03:02:04;;;;;;;11.47;5.60;;;-0.40;99.90;;;;;;5074051;28;21000;-82
2021/01/26 03:04:37;;;;;;;7.50;4.33;;;-0.40;99.90;;;;;;5074107;28;20438;-82
2021/01/26 03:07:08;;;;;;;11.87;5.50;;;-0.40;99.90;;;;;;5074669;28;20414;-82
2021/01/26 03:09:40;;;;;;;9.30;5.60;;;-0.40;99.90;;;;;;5073983;28;20435;-82
2021/01/26 03:12:13;;;;;;;14.13;5.73;;;-0.40;99.90;;;;;;5074199;28;20438;-82
2021/01/26 03:14:43;;;;;;;11.50;6.03;;;-0.40;99.90;;;;;;5074332;28;20422;-82
2021/01/26 03:17:14;;;;;;;8.20;5.27;;;-0.40;99.90;;;;;;5073730;28;20444;-82
2021/01/26 03:19:47;;;;;;;6.53;5.07;;;-0.40;99.90;;;;;;5073804;28;20455;-82
2021/01/26 03:22:15;;;;;;;7.90;5.50;;;-0.40;99.90;;;;;;5073576;28;20435;-82
2021/01/26 03:24:43;;;;;;;12.10;5.20;;;-0.40;99.90;;;;;;5073696;28;20433;-81
2021/01/26 03:27:14;;;;;;;6.37;5.03;;;-0.40;99.90;;;;;;5073674;28;20459;-82
2021/01/26 03:29:45;;;;;;;7.67;4.70;;;-0.40;99.90;;;;;;5073697;28;20500;-82
2021/01/26 03:32:16;;;;;;;8.10;5.23;;;-0.40;99.90;;;;;;5074125;28;20407;-82
2021/01/26 03:34:43;;;;;;;9.87;5.30;;;-0.40;99.90;;;;;;5073187;28;20438;-82
2021/01/26 03:37:10;;;;;;;8.67;5.07;;;-0.30;99.90;;;;;;5073752;28;20787;-81
2021/01/26 03:39:37;;;;;;;8.20;4.80;;;-0.30;99.90;;;;;;5073622;28;20446;-82
2021/01/26 03:42:04;;;;;;;8.47;5.43;;;-0.40;99.90;;;;;;5073204;28;20866;-82
2021/01/26 03:44:31;;;;;;;7.13;4.50;;;-0.50;99.90;;;;;;5073342;28;20452;-82
2021/01/26 03:47:21;;;;;;;8.60;5.17;;;-0.50;99.90;;;;;;5073254;28;20799;-81
2021/01/26 03:50:08;;;;;;;7.57;4.40;;;-0.40;99.90;;;;;;5073522;28;20522;-82
2021/01/26 03:53:04;;;;;;;9.00;4.33;;;-0.50;99.90;;;;;;5073589;28;20403;-82
2021/01/26 03:55:33;;;;;;;6.20;4.33;;;-0.50;99.90;;;;;;5073501;28;20407;-82
2021/01/26 03:58:09;;;;;;;6.40;4.40;;;-0.50;99.90;;;;;;5073316;28;20473;-82
2021/01/26 04:00:42;;;;;;;6.87;5.00;;;-0.60;99.90;;;;;;5073356;28;20463;-82
2021/01/26 04:03:39;;;;;;;5.43;3.53;;;-0.60;99.90;;;;;;5073229;28;20748;-82
2021/01/26 04:06:11;;;;;;;9.17;5.07;;;-0.60;99.90;;;;;;5073324;28;20449;-82
2021/01/26 04:08:41;;;;;;;9.27;4.50;;;-0.60;99.90;;;;;;5072955;28;20844;-82
2021/01/26 04:11:13;;;;;;;7.60;4.60;;;-0.50;99.90;;;;;;5073136;28;20419;-82
2021/01/26 04:13:47;;;;;;;7.70;4.57;;;-0.50;99.90;;;;;;5073006;28;20959;-82
2021/01/26 04:16:19;;;;;;;7.97;4.93;;;-0.60;99.90;;;;;;5073164;28;20422;-82
2021/01/26 04:18:49;;;;;;;8.50;5.30;;;-0.50;99.90;;;;;;5073725;28;20522;-82
2021/01/26 04:21:17;;;;;;;6.40;4.43;;;-0.50;99.90;;;;;;5073190;28;20432;-82
2021/01/26 04:23:43;;;;;;;8.13;4.20;;;-0.50;99.90;;;;;;5072798;28;20433;-82
2021/01/26 04:26:13;;;;;;;6.53;4.30;;;-0.50;99.90;;;;;;5073140;28;20435;-82
2021/01/26 04:28:42;;;;;;;5.33;4.10;;;-0.40;99.90;;;;;;5072790;28;20484;-82
2021/01/26 04:31:10;;;;;;;6.57;4.27;;;-0.40;99.90;;;;;;5073882;28;20426;-82
2021/01/26 04:33:38;;;;;;;5.27;4.07;;;-0.30;99.90;;;;;;5073744;28;20428;-82
2021/01/26 04:36:05;;;;;;;7.57;4.30;;;-0.30;99.90;;;;;;5072667;28;20408;-82
2021/01/26 04:38:31;;;;;;;9.77;3.33;;;-0.30;99.90;;;;;;5072750;28;20460;-82
2021/01/26 04:41:03;;;;;;;5.03;3.63;;;-0.20;99.90;;;;;;5072988;28;20501;-82
2021/01/26 04:43:37;;;;;;;6.40;3.80;;;-0.20;99.90;;;;;;5074388;28;20442;-82
2021/01/26 04:46:10;;;;;;;4.63;4.00;;;-0.20;99.90;;;;;;5076775;28;20958;-82
2021/01/26 04:48:45;;;;;;;6.30;3.73;;;-0.20;99.90;;;;;;5076905;28;20916;-82
2021/01/26 04:51:18;;;;;;;5.93;4.10;;;-0.10;99.90;;;;;;5076947;28;20414;-82
2021/01/26 04:54:13;;;;;;;6.27;4.60;;;-0.10;99.90;;;;;;5076587;28;20411;-82
2021/01/26 04:56:51;;;;;;;7.53;4.27;;;-0.10;99.90;;;;;;5076936;28;20403;-82
2021/01/26 04:59:39;;;;;;;5.30;4.23;;;-0.10;99.90;;;;;;5076693;28;20483;-82
2021/01/26 05:02:40;;;;;;;6.73;3.27;;;-0.10;99.90;;;;;;5076587;28;20976;-81
2021/01/26 05:05:12;;;;;;;5.87;3.63;;;-0.20;99.90;;;;;;5033817;28;20484;-81
2021/01/26 05:07:43;;;;;;;4.63;3.97;;;-0.10;99.90;;;;;;5076684;28;20486;-81
2021/01/26 05:10:13;;;;;;;6.50;4.23;;;-0.20;99.90;;;;;;5076596;28;20435;-81
2021/01/26 05:12:43;;;;;;;5.10;3.30;;;-0.10;99.90;;;;;;5076217;28;20963;-81
2021/01/26 05:15:16;;;;;;;9.60;4.13;;;-0.20;99.90;;;;;;5076158;28;20921;-81
2021/01/26 05:17:47;;;;;;;5.67;3.57;;;-0.20;99.90;;;;;;5076155;28;20400;-81
2021/01/26 05:20:19;;;;;;;6.77;3.87;;;-0.20;99.90;;;;;;5076296;28;20432;-81
2021/01/26 05:22:50;;;;;;;9.23;3.40;;;-0.20;99.90;;;;;;5076252;28;20464;-81
2021/01/26 05:25:19;;;;;;;7.20;4.00;;;-0.20;99.90;;;;;;5075970;28;20889;-81
2021/01/26 05:27:48;;;;;;;5.37;3.17;;;-0.20;99.90;;;;;;5075724;28;20476;-81
2021/01/26 05:30:24;;;;;;;8.30;3.63;;;-0.20;99.90;;;;;;5076121;28;20494;-81
2021/01/26 05:32:51;;;;;;;6.43;3.17;;;-0.10;99.90;;;;;;5076122;28;20526;-81
2021/01/26 05:35:19;;;;;;;4.10;3.00;;;-0.10;99.90;;;;;;5075821;28;20414;-81
2021/01/26 05:37:47;;;;;;;6.77;3.97;;;-0.10;99.90;;;;;;5075798;28;20433;-82
2021/01/26 05:40:20;;;;;;;5.30;3.50;;;0.00;99.90;;;;;;5075678;28;20457;-81
2021/01/26 05:42:50;;;;;;;6.53;3.90;;;-0.10;99.90;;;;;;5075923;28;20455;-81
2021/01/26 05:45:21;;;;;;;6.93;3.90;;;-0.10;99.90;;;;;;5075857;28;20438;-81
2021/01/26 05:47:58;;;;;;;3.80;2.80;;;0.00;99.90;;;;;;5075949;28;20384;-81
2021/01/26 05:50:27;;;;;;;4.53;3.23;;;0.00;99.90;;;;;;5076431;28;20795;-81
2021/01/26 05:52:56;;;;;;;5.30;3.10;;;-0.10;99.90;;;;;;5075758;28;20456;-81
2021/01/26 05:55:26;;;;;;;6.17;3.37;;;-0.10;99.90;;;;;;5075474;28;20420;-81
2021/01/26 05:57:53;;;;;;;5.87;3.70;;;-0.10;99.90;;;;;;5075355;28;20480;-81
2021/01/26 06:00:22;;;;;;;3.63;2.87;;;-0.10;99.90;;;;;;5075242;28;20443;-81
2021/01/26 06:03:05;;;;;;;5.57;3.70;;;-0.10;99.90;;;;;;5075175;28;20835;-82
2021/01/26 06:05:32;;;;;;;3.00;2.63;;;-0.10;99.90;;;;;;5075735;28;20537;-81
2021/01/26 06:08:07;;;;;;;2.47;2.10;;;-0.10;99.90;;;;;;5075129;28;20433;-81
2021/01/26 06:10:35;;;;;;;4.60;3.23;;;-0.10;99.90;;;;;;5075397;28;20428;-81
2021/01/26 06:13:03;;;;;;;3.47;2.53;;;-0.10;99.90;;;;;;5075589;28;20456;-81
2021/01/26 06:15:32;;;;;;;5.73;2.90;;;-0.10;99.90;;;;;;5075371;28;20462;-81
2021/01/26 06:18:10;;;;;;;3.90;2.63;;;-0.10;99.90;;;;;;5075200;28;20527;-81
2021/01/26 06:20:38;;;;;;;5.30;2.80;;;-0.10;99.90;;;;;;5074826;28;20449;-81
2021/01/26 06:23:18;;;;;;;4.57;2.50;;;-0.10;99.90;;;;;;5075191;28;20456;-82
2021/01/26 06:25:50;;;;;;;4.27;2.47;;;0.00;99.90;;;;;;5075553;28;20441;-81
2021/01/26 06:28:54;;;;;;;5.00;3.10;;;0.00;99.90;;;;;;5074705;28;20447;-81
2021/01/26 06:31:36;;;;;;;2.83;2.60;;;-0.10;99.90;;;;;;5067794;28;20514;-81
2021/01/26 06:34:21;;;;;;;6.53;3.00;;;-0.10;99.90;;;;;;5074924;28;20436;-81
2021/01/26 06:37:28;;;;;;;4.20;2.57;;;0.00;99.90;;;;;;5074805;28;20440;-81
2021/01/26 06:40:14;;;;;;;5.70;2.40;;;0.00;99.90;;;;;;5074605;28;20424;-81
2021/01/26 06:42:51;;;;;;;2.60;2.20;;;0.00;99.90;;;;;;5074344;28;20475;-81
2021/01/26 06:45:25;;;;;;;3.10;2.37;;;0.10;99.90;;;;;;5074776;28;20440;-81
2021/01/26 06:48:23;;;;;;;2.80;1.93;;;0.00;99.90;;;;;;5074486;28;20887;-81
2021/01/26 06:51:12;;;;;;;4.10;2.43;;;0.00;99.90;;;;;;5074689;28;20415;-81
2021/01/26 06:53:52;;;;;;;5.27;2.10;;;0.10;99.90;;;;;;5074588;28;20436;-81
2021/01/26 06:56:50;;;;;;;2.57;2.17;;;0.10;99.90;;;;;;5074816;28;20461;-81
2021/01/26 06:59:28;;;;;;;2.97;2.10;;;0.00;99.90;;;;;;5074130;28;20427;-81
2021/01/26 07:02:43;;;;;;;3.00;2.00;;;0.00;99.90;;;;;;5074424;28;20436;-81
2021/01/26 07:05:37;;;;;;;3.03;1.90;;;0.00;99.90;;;;;;5039453;28;20423;-81
2021/01/26 07:08:19;;;;;;;3.97;2.40;;;0.00;99.90;;;;;;5073157;28;20427;-81
2021/01/26 07:10:59;;;;;;;2.37;1.93;;;0.00;99.90;;;;;;5074317;28;20434;-81
2021/01/26 07:13:32;;;;;;;3.80;2.17;;;0.00;99.90;;;;;;5074195;28;20428;-81
2021/01/26 07:16:28;;;;;;;3.93;1.67;;;0.10;99.90;;;;;;5074021;28;20478;-81
2021/01/26 07:19:34;;;;;;;2.20;1.70;;;0.10;99.90;;;;;;5073789;28;20424;-81
2021/01/26 07:22:33;;;;;;;2.70;1.77;;;0.10;99.90;;;;;;5074027;28;20556;-81
2021/01/26 07:25:10;;;;;;;2.90;2.30;;;0.10;99.90;;;;;;5073782;28;20425;-82
2021/01/26 07:27:51;;;;;;;5.00;1.63;;;0.10;99.90;;;;;;5073680;28;20440;-82
2021/01/26 07:30:20;;;;;;;7.17;2.30;;;0.10;99.90;;;;;;5073545;28;20981;-82
2021/01/26 07:32:56;;;;;;;1.80;1.60;;;0.10;99.90;;;;;;5073578;28;20419;-81
2021/01/26 07:35:30;;;;;;;7.63;1.80;;;0.10;99.90;;;;;;5074536;28;20440;-82
2021/01/26 07:38:00;;;;;;;3.77;1.67;;;0.10;99.90;;;;;;5074090;28;20444;-82
2021/01/26 07:40:32;;;;;;;3.53;1.70;;;0.20;99.90;;;;;;5073708;28;20431;-81
2021/01/26 07:43:06;;;;;;;5.77;2.00;;;0.20;99.90;;;;;;5075233;28;20825;-82
2021/01/26 07:45:36;;;;;;;3.23;1.90;;;0.30;99.90;;;;;;5076823;28;20419;-82
2021/01/26 07:48:11;;;;;;;2.90;1.93;;;0.30;99.90;;;;;;5076648;28;20388;-82
2021/01/26 07:50:44;;;;;;;3.27;1.90;;;0.30;99.90;;;;;;5077545;28;20472;-82
2021/01/26 07:53:18;;;;;;;3.43;1.63;;;0.40;99.90;;;;;;5073677;28;20403;-82
2021/01/26 07:55:50;;;;;;;6.53;1.80;;;0.40;99.90;;;;;;5074399;28;20412;-81
2021/01/26 07:58:17;;;;;;;5.90;1.60;;;0.40;99.90;;;;;;5075129;28;20416;-81
2021/01/26 08:00:48;;;;;;;3.47;1.97;;;0.50;99.90;;;;;;5074547;28;20408;-81
2021/01/26 08:03:14;;;;;;;4.17;1.73;;;0.50;99.90;;;;;;5073453;28;20413;-82
2021/01/26 08:05:45;;;;;;;3.47;1.60;;;0.50;99.90;;;;;;5073348;28;20427;-82
2021/01/26 08:08:22;;;;;;;2.63;1.77;;;0.50;99.90;;;;;;5073284;28;20464;-82
2021/01/26 08:11:08;;;;;;;3.83;1.80;;;0.50;99.90;;;;;;5073378;28;20415;-82
2021/01/26 08:13:39;;;;;;;5.77;2.00;;;0.50;99.90;;;;;;5073119;28;20886;-82
2021/01/26 08:16:21;;;;;;;2.50;1.80;;;0.50;99.90;;;;;;5073311;28;20397;-82
2021/01/26 08:18:49;;;;;;;2.87;2.13;;;0.60;99.90;;;;;;5072686;28;20435;-82
2021/01/26 08:21:36;;;;;;;2.67;1.73;;;0.60;99.90;;;;;;5073316;28;20526;-81
2021/01/26 08:24:33;;;;;;;2.70;1.70;;;0.60;99.90;;;;;;5072985;28;20907;-82
2021/01/26 08:27:38;;;;;;;3.13;1.37;;;0.60;99.90;;;;;;5071713;28;20492;-81
2021/01/26 08:30:07;;;;;;;2.23;1.93;;;0.60;99.90;;;;;;5052267;28;20462;-81
2021/01/26 08:32:45;;;;;;;1.93;1.83;;;0.60;99.90;;;;;;5072710;28;20456;-82
2021/01/26 08:35:34;;;;;;;5.33;1.70;;;0.60;99.90;;;;;;5072902;28;20453;-82
2021/01/26 08:38:03;;;;;;;3.10;1.57;;;0.60;99.90;;;;;;5073072;28;20441;-82
2021/01/26 08:41:01;;;;;;;2.67;1.47;;;0.60;99.90;;;;;;5072978;28;20465;-81
2021/01/26 08:43:50;;;;;;;2.60;2.10;;;0.60;99.90;;;;;;5072999;28;20392;-82
2021/01/26 08:46:34;;;;;;;6.63;1.80;;;0.70;99.90;;;;;;5072935;28;20412;-82
2021/01/26 08:49:04;;;;;;;3.30;2.47;;;0.70;99.90;;;;;;5072925;28;20468;-82
2021/01/26 08:51:31;;;;;;;4.73;2.07;;;0.70;99.90;;;;;;5072883;28;20441;-82
2021/01/26 08:54:00;;;;;;;1.93;1.63;;;0.70;99.90;;;;;;5072841;28;20464;-82
2021/01/26 08:56:39;;;;;;;2.10;1.90;;;0.80;99.90;;;;;;5072805;28;20453;-82
2021/01/26 08:59:13;;;;;;;1.90;1.80;;;0.80;99.90;;;;;;5072512;28;20423;-82
2021/01/26 09:01:42;;;;;;;2.40;2.00;;;0.90;99.90;;;;;;5072658;28;20461;-82
2021/01/26 09:04:40;;;;;;;3.70;3.30;;;0.90;99.90;;;;;;5072506;28;20980;-81
2021/01/26 09:07:07;;;;;;;4.53;2.37;;;0.90;99.90;;;;;;5072370;28;20408;-81
2021/01/26 09:09:48;;;;;;;3.60;2.80;;;0.90;99.90;;;;;;5072705;28;20464;-81
2021/01/26 09:12:21;;;;;;;6.03;2.40;;;0.90;99.90;;;;;;5072746;28;20460;-81
2021/01/26 09:14:52;;;;;;;5.43;2.73;;;1.00;99.90;;;;;;5072394;28;20415;-81
2021/01/26 09:17:25;;;;;;;4.50;3.40;;;1.00;99.90;;;;;;5072826;28;20430;-81
2021/01/26 09:19:54;;;;;;;3.27;2.33;;;1.10;99.90;;;;;;5072441;28;20458;-81
2021/01/26 09:22:24;;;;;;;3.47;2.07;;;1.20;99.90;;;;;;5072595;28;20462;-81
2021/01/26 09:24:58;;;;;;;6.80;2.40;;;1.30;99.90;;;;;;5072852;28;20485;-82
2021/01/26 09:27:27;;;;;;;2.23;2.03;;;1.30;99.90;;;;;;5072354;28;20482;-81
2021/01/26 09:30:13;;;;;;;4.63;3.20;;;1.30;99.90;;;;;;5073695;28;20468;-82
2021/01/26 09:32:40;;;;;;;3.90;2.00;;;1.30;99.90;;;;;;5075118;28;20445;-82
2021/01/26 09:35:13;;;;;;;4.40;2.10;;;1.40;99.90;;;;;;5076205;28;20433;-82
2021/01/26 09:37:39;;;;;;;5.30;2.50;;;1.30;99.90;;;;;;5076088;28;20429;-82
2021/01/26 09:40:09;;;;;;;4.20;2.53;;;1.30;99.90;;;;;;5075750;28;20445;-82
2021/01/26 09:42:36;;;;;;;2.10;1.90;;;1.30;99.90;;;;;;5075930;28;20443;-83
2021/01/26 09:45:07;;;;;;;3.93;1.83;;;1.30;99.90;;;;;;5075961;28;20441;-82
2021/01/26 09:47:33;;;;;;;2.23;2.00;;;1.40;99.90;;;;;;5076496;28;20588;-82
2021/01/26 09:50:03;;;;;;;2.33;2.10;;;1.50;99.90;;;;;;5075750;28;20503;-82
2021/01/26 09:52:31;;;;;;;2.40;2.07;;;1.70;99.90;;;;;;5076533;28;20772;-82
2021/01/26 09:55:08;;;;;;;2.97;1.80;;;1.80;99.90;;;;;;5075832;28;20443;-82
2021/01/26 09:57:34;;;;;;;1.73;1.63;;;2.00;99.90;;;;;;5075749;28;20440;-83
2021/01/26 10:00:03;;;;;;;4.63;1.73;;;2.20;99.90;;;;;;5075822;28;20465;-83
2021/01/26 10:02:29;;;;;;;3.53;1.40;;;2.40;99.90;;;;;;5075303;28;21001;-82
2021/01/26 10:04:56;;;;;;;2.53;2.03;;;2.70;99.90;;;;;;5075601;28;20516;-82
2021/01/26 10:07:23;;;;;;;2.40;1.73;;;3.20;99.90;;;;;;5075248;28;20918;-83
2021/01/26 10:09:50;;;;;;;6.83;2.53;;;4.10;99.90;;;;;;5075388;28;20962;-83
2021/01/26 10:12:21;;;;;;;1.60;1.50;;;4.80;99.90;;;;;;5075494;28;20430;-83
2021/01/26 10:15:07;;;;;;;2.60;2.20;;;5.00;99.90;;;;;;5075101;28;20432;-82
2021/01/26 10:17:41;;;;;;;1.90;1.30;;;5.40;99.90;;;;;;5060638;28;20468;-82
2021/01/26 10:20:09;;;;;;;2.07;1.43;;;5.70;99.90;;;;;;5075974;28;20468;-83
2021/01/26 10:22:36;;;;;;;4.83;1.47;;;5.60;99.90;;;;;;5075095;28;20488;-83
2021/01/26 10:25:08;;;;;;;3.87;1.60;;;5.20;99.90;;;;;;5075428;28;20444;-83
2021/01/26 10:27:36;;;;;;;5.47;1.87;;;4.90;99.90;;;;;;5074867;28;20538;-83
2021/01/26 10:30:13;;;;;;;1.70;1.60;;;4.40;99.90;;;;;;5074996;28;20854;-83
2021/01/26 10:32:42;;;;;;;2.20;1.47;;;3.90;99.90;;;;;;5075146;28;20429;-84
2021/01/26 10:35:23;;;;;;;3.23;1.77;;;3.40;99.90;;;;;;5075181;28;20429;-83
2021/01/26 10:37:50;;;;;;;5.67;1.83;;;3.20;99.90;;;;;;5074916;28;20416;-83
2021/01/26 10:40:33;;;;;;;2.10;1.60;;;3.10;99.90;;;;;;5075435;28;20484;-83
2021/01/26 10:43:05;;;;;;;1.80;1.70;;;3.00;99.90;;;;;;5074765;28;20518;-84
2021/01/26 10:45:44;;;;;;;1.70;1.53;;;3.00;99.90;;;;;;5074637;28;20436;-84
2021/01/26 10:48:17;;;;;;;2.10;1.60;;;3.10;99.90;;;;;;5077330;28;20424;-84
2021/01/26 10:50:43;;;;;;;3.00;2.10;;;3.20;99.90;;;;;;5074754;28;20433;-84
2021/01/26 10:53:10;;;;;;;2.13;1.73;;;3.30;99.90;;;;;;5074660;28;20413;-84
2021/01/26 10:55:36;;;;;;;1.43;1.33;;;3.30;99.90;;;;;;5074617;28;20429;-85
2021/01/26 10:58:04;;;;;;;3.53;1.37;;;3.20;99.90;;;;;;5074916;28;20437;-85
2021/01/26 11:00:31;;;;;;;2.50;1.53;;;3.10;99.90;;;;;;5074482;28;21026;-86
2021/01/26 11:02:57;;;;;;;3.57;2.27;;;3.00;99.90;;;;;;5074498;28;20977;-86
2021/01/26 11:05:25;;;;;;;3.47;1.80;;;2.90;99.90;;;;;;5074359;28;21067;-86
2021/01/26 11:07:51;;;;;;;2.30;2.03;;;2.90;99.90;;;;;;5074481;28;20926;-86
2021/01/26 11:10:19;;;;;;;1.80;1.70;;;2.90;99.90;;;;;;5074611;28;20461;-84
2021/01/26 11:12:46;;;;;;;5.53;1.70;;;3.00;99.90;;;;;;5074586;28;20429;-84
2021/01/26 11:15:18;;;;;;;2.13;1.80;;;3.00;99.90;;;;;;5074692;28;20425;-85
2021/01/26 11:17:51;;;;;;;2.27;2.07;;;3.00;99.90;;;;;;5074337;28;20956;-84
2021/01/26 11:20:18;;;;;;;5.00;1.80;;;3.00;99.90;;;;;;5074415;28;20431;-84
2021/01/26 11:22:46;;;;;;;4.80;3.50;;;2.80;99.90;;;;;;5074543;28;20461;-85
2021/01/26 11:25:15;;;;;;;5.70;1.60;;;2.90;99.90;;;;;;5074271;28;20570;-85
2021/01/26 11:27:41;;;;;;;5.57;1.83;;;2.90;99.90;;;;;;5074092;28;20534;-85
2021/01/26 11:30:12;;;;;;;1.60;1.20;;;2.80;99.90;;;;;;5074380;28;20985;-86
2021/01/26 11:32:41;;;;;;;5.80;1.90;;;2.80;99.90;;;;;;5074122;28;20900;-85
2021/01/26 11:35:12;;;;;;;6.50;3.20;;;2.70;99.90;;;;;;5074266;28;20444;-85
2021/01/26 11:37:39;;;;;;;1.57;0.90;;;2.80;99.90;;;;;;5073970;28;20411;-85
2021/01/26 11:40:12;;;;;;;1.87;1.47;;;2.70;99.90;;;;;;5073973;28;20460;-85
2021/01/26 11:42:40;;;;;;;5.60;1.77;;;2.70;99.90;;;;;;5074207;28;20544;-86
2021/01/26 11:45:09;;;;;;;2.90;1.63;;;2.80;99.90;;;;;;5074111;28;20430;-85
2021/01/26 11:47:37;;;;;;;2.00;1.80;;;2.80;99.90;;;;;;5073859;28;20413;-84
2021/01/26 11:50:08;;;;;;;2.33;1.07;;;2.80;99.90;;;;;;5073872;28;20822;-85
2021/01/26 11:52:36;;;;;;;1.37;1.23;;;2.80;99.90;;;;;;5074360;28;20418;-86
2021/01/26 11:55:04;;;;;;;3.50;1.23;;;2.80;99.90;;;;;;5073043;28;20437;-85
2021/01/26 11:57:32;;;;;;;1.20;1.10;;;3.00;99.90;;;;;;5073887;28;20432;-85
2021/01/26 12:00:00;;;;;;;1.50;1.40;;;3.10;99.90;;;;;;5073534;28;20481;-85
2021/01/26 12:02:27;;;;;;;5.23;1.10;;;3.30;99.90;;;;;;5073621;28;20552;-85
2021/01/26 12:05:06;;;;;;;2.23;0.90;;;3.40;99.90;;;;;;5073758;28;20452;-84
2021/01/26 12:08:25;;;;;;;1.37;1.10;;;3.50;99.90;;;;;;5073646;28;20993;-86
2021/01/26 12:10:55;;;;;;;1.67;1.00;;;3.60;99.90;;;;;;5073538;28;20452;-85
2021/01/26 12:13:22;;;;;;;1.97;1.03;;;3.90;99.90;;;;;;5073792;28;20434;-85
2021/01/26 12:15:48;;;;;;;1.23;0.80;;;4.10;99.90;;;;;;5073274;28;20809;-84
2021/01/26 12:18:14;;;;;;;4.17;1.27;;;4.20;99.90;;;;;;5073582;28;20425;-79
2021/01/26 12:20:41;;;;;;;2.30;1.23;;;4.10;99.90;;;;;;5073749;28;20421;-80
2021/01/26 12:23:07;;;;;;;2.40;0.70;;;3.90;99.90;;;;;;5073081;28;20473;-81
2021/01/26 12:25:35;;;;;;;1.17;1.07;;;3.70;99.90;;;;;;5073026;28;20409;-81
2021/01/26 12:28:03;;;;;;;3.53;1.10;;;3.60;99.90;;;;;;5072709;28;20895;-81
2021/01/26 12:30:30;;;;;;;1.50;1.00;;;3.50;99.90;;;;;;5072920;28;20480;-82
2021/01/26 12:32:57;;;;;;;1.70;1.10;;;3.40;99.90;;;;;;5072829;28;20441;-81
2021/01/26 12:35:25;;;;;;;1.80;0.90;;;3.30;99.90;;;;;;5073139;28;20570;-81
2021/01/26 12:37:52;;;;;;;4.00;1.00;;;3.20;99.90;;;;;;5072865;28;20433;-81
2021/01/26 12:40:20;;;;;;;1.40;1.00;;;3.20;99.90;;;;;;5073020;28;20473;-81
2021/01/26 12:42:46;;;;;;;1.50;0.83;;;3.10;99.90;;;;;;5072710;28;21058;-81
2021/01/26 12:45:16;;;;;;;4.73;1.47;;;3.10;99.90;;;;;;5072680;28;20958;-81
2021/01/26 12:47:42;;;;;;;1.10;1.00;;;3.00;99.90;;;;;;5076505;28;20452;-81
2021/01/26 12:50:11;;;;;;;6.93;1.10;;;3.00;99.90;;;;;;5072690;28;21001;-81
2021/01/26 12:52:37;;;;;;;2.07;1.13;;;3.10;99.90;;;;;;5072910;28;20408;-82
2021/01/26 12:55:05;;;;;;;1.93;1.20;;;3.20;99.90;;;;;;5072675;28;20474;-81
2021/01/26 12:57:32;;;;;;;1.77;0.90;;;3.20;99.90;;;;;;5072526;28;20832;-82
2021/01/26 12:59:58;;;;;;;2.03;0.73;;;3.10;99.90;;;;;;5072673;28;20465;-82
2021/01/26 13:02:27;;;;;;;7.93;1.57;;;3.10;99.90;;;;;;5071982;28;20855;-81
2021/01/26 13:04:54;;;;;;;1.40;1.30;;;3.10;99.90;;;;;;5072533;28;20444;-82
2021/01/26 13:07:20;;;;;;;1.80;1.10;;;3.20;99.90;;;;;;5075699;28;20906;-82
2021/01/26 13:09:47;;;;;;;2.40;1.20;;;3.30;99.90;;;;;;5076191;28;20842;-81
2021/01/26 13:12:13;;;;;;;2.60;1.20;;;3.30;99.90;;;;;;5077187;28;20440;-81
2021/01/26 13:14:39;;;;;;;1.77;1.67;;;3.40;99.90;;;;;;5076164;28;20914;-83
2021/01/26 13:17:07;;;;;;;1.60;1.37;;;3.40;99.90;;;;;;5076963;28;20418;-84
2021/01/26 13:19:34;;;;;;;2.67;1.10;;;3.40;99.90;;;;;;5076681;28;20833;-84
2021/01/26 13:22:00;;;;;;;4.33;1.20;;;3.40;99.90;;;;;;5077491;28;20527;-83